Terminal Aerodrome Forecast
Issued by NWS

Home | Current Version | Previous Version | Text Only | Print | Product List | Glossary On
Versions: 1 2 3 4 5 6 7 8 9 10 11 12 13 14 15 16 17 18 19 20 21 22 23 24 25
000
FTUS41 KCAR 012300
TAFBHB
TAF
KBHB 012334Z 0200/0224 VRB03KT P6SM SCT025 BKN060
     FM020200 VRB02KT 5SM BR SCT008 BKN018
     FM020400 VRB02KT 1SM BR BKN005
     FM021300 16005KT 5SM BR BKN008
     FM021600 16007KT P6SM BKN020
     FM021900 17008KT P6SM BKN035
      AMD LTD TO CLD VIS AND WIND=

USA.gov is the U.S. government's official web portal to all federal, state and local government web resources and services.